Time;durP1;ratioP1;P1;durP2;ratioP2;P2;SDS_P1;SDS_P2;PMS_P1;PMS_P2;Temp;Humidity;BMP_temperature;BMP_pressure;BME280_temperature;BME280_humidity;BME280_pressure;Samples;Min_cycle;Max_cycle;Signal;HPM_P1;HPM_P2
2021/08/14 00:02:09;;;;;;;;;;;22.00;99.90;;;;;;5095992;28;19995;-67
2021/08/14 00:04:35;;;;;;;;;;;22.00;99.90;;;;;;5095542;28;20385;-65
2021/08/14 00:07:00;;;;;;;;;;;21.90;99.90;;;;;;5095602;28;20005;-67
2021/08/14 00:09:26;;;;;;;;;;;21.90;99.90;;;;;;5095417;28;19977;-68
2021/08/14 00:11:51;;;;;;;;;;;21.80;99.90;;;;;;5095623;28;19929;-65
2021/08/14 00:14:17;;;;;;;;;;;21.80;99.90;;;;;;5095270;28;19908;-66
2021/08/14 00:16:42;;;;;;;;;;;21.80;99.90;;;;;;5095374;28;19904;-67
2021/08/14 00:19:08;;;;;;;;;;;21.80;99.90;;;;;;5095152;28;20015;-67
2021/08/14 00:21:33;;;;;;;;;;;21.70;99.90;;;;;;5093982;28;19911;-68
2021/08/14 00:23:59;;;;;;;;;;;21.70;99.90;;;;;;5095133;28;19904;-66
2021/08/14 00:26:24;;;;;;;;;;;21.70;99.90;;;;;;5095509;28;19965;-68
2021/08/14 00:28:50;;;;;;;;;;;21.60;99.90;;;;;;5095260;28;19911;-67
2021/08/14 00:31:16;;;;;;;;;;;21.60;99.90;;;;;;5095768;28;20372;-67
2021/08/14 00:33:42;;;;;;;;;;;21.60;99.90;;;;;;5094029;28;19908;-67
2021/08/14 00:36:07;;;;;;;;;;;21.60;99.90;;;;;;5095007;28;19904;-66
2021/08/14 00:38:33;;;;;;;;;;;21.60;99.90;;;;;;5094986;28;20428;-67
2021/08/14 00:40:58;;;;;;;;;;;21.60;99.90;;;;;;5094876;28;19922;-67
2021/08/14 00:43:24;;;;;;;;;;;21.60;99.90;;;;;;5094612;28;19911;-65
2021/08/14 00:45:49;;;;;;;;;;;21.50;99.90;;;;;;5094573;28;19911;-65
2021/08/14 00:48:15;;;;;;;;;;;21.50;99.90;;;;;;5094511;28;19998;-65
2021/08/14 00:50:40;;;;;;;;;;;21.50;99.90;;;;;;5093075;28;20345;-66
2021/08/14 00:53:06;;;;;;;;;;;21.50;99.90;;;;;;5094412;28;19920;-66
2021/08/14 00:55:31;;;;;;;;;;;21.50;99.90;;;;;;5094513;28;19970;-66
2021/08/14 00:57:57;;;;;;;;;;;21.40;99.90;;;;;;5094510;28;20380;-66
2021/08/14 01:00:23;;;;;;;;;;;21.40;99.90;;;;;;5094621;28;19943;-66
2021/08/14 01:02:49;;;;;;;;;;;21.40;99.90;;;;;;5094367;28;19958;-65
2021/08/14 01:05:16;;;;;;;;;;;21.40;99.90;;;;;;5094535;28;20280;-66
2021/08/14 01:07:41;;;;;;;;;;;21.30;99.90;;;;;;5094949;28;19998;-66
2021/08/14 01:10:07;;;;;;;;;;;21.30;99.90;;;;;;5094213;28;19958;-66
2021/08/14 01:12:33;;;;;;;;;;;21.30;99.90;;;;;;5094064;28;20428;-66
2021/08/14 01:14:58;;;;;;;;;;;21.30;99.90;;;;;;5094003;28;19908;-66
2021/08/14 01:17:24;;;;;;;;;;;21.30;99.90;;;;;;5094516;28;19904;-66
2021/08/14 01:19:49;;;;;;;;;;;21.30;99.90;;;;;;5093914;28;19911;-66
2021/08/14 01:22:15;;;;;;;;;;;21.30;99.90;;;;;;5094069;28;19904;-66
2021/08/14 01:24:42;;;;;;;;;;;21.30;99.90;;;;;;5094255;28;19911;-66
2021/08/14 01:27:08;;;;;;;;;;;21.30;99.90;;;;;;5094205;28;19950;-66
2021/08/14 01:29:34;;;;;;;;;;;21.30;99.90;;;;;;5093982;28;19904;-66
2021/08/14 01:32:00;;;;;;;;;;;21.30;99.90;;;;;;5094182;28;20356;-66
2021/08/14 01:34:25;;;;;;;;;;;21.30;99.90;;;;;;5093751;28;19908;-66
2021/08/14 01:36:51;;;;;;;;;;;21.20;99.90;;;;;;5093956;28;19904;-66
2021/08/14 01:39:17;;;;;;;;;;;21.30;99.90;;;;;;5094133;28;20417;-66
2021/08/14 01:41:52;;;;;;;;;;;21.30;99.90;;;;;;5093700;28;19908;-66
2021/08/14 01:44:18;;;;;;;;;;;21.20;99.90;;;;;;5093565;28;19904;-66
2021/08/14 01:46:43;;;;;;;;;;;21.20;99.90;;;;;;5093825;28;19915;-66
2021/08/14 01:49:09;;;;;;;;;;;21.20;99.90;;;;;;5094035;28;20336;-66
2021/08/14 01:51:35;;;;;;;;;;;21.10;99.90;;;;;;5093830;28;19912;-66
2021/08/14 01:54:01;;;;;;;;;;;21.10;99.90;;;;;;5094007;28;19908;-66
2021/08/14 01:56:28;;;;;;;;;;;21.20;99.90;;;;;;5094034;28;19907;-66
2021/08/14 01:58:53;;;;;;;;;;;21.20;99.90;;;;;;5093638;28;19904;-66
2021/08/14 02:01:19;;;;;;;;;;;21.10;99.90;;;;;;5093288;28;19918;-66
2021/08/14 02:03:48;;;;;;;;;;;21.10;99.90;;;;;;5093246;28;19983;-66
2021/08/14 02:06:15;;;;;;;;;;;21.10;99.90;;;;;;5093218;28;19995;-66
2021/08/14 02:08:40;;;;;;;;;;;21.10;99.90;;;;;;5093169;28;19904;-66
2021/08/14 02:11:10;;;;;;;;;;;21.00;99.90;;;;;;5091912;28;19949;-66
2021/08/14 02:13:35;;;;;;;;;;;21.10;99.90;;;;;;5093319;28;19908;-66
2021/08/14 02:16:01;;;;;;;;;;;21.10;99.90;;;;;;5094780;28;20348;-62
2021/08/14 02:18:27;;;;;;;;;;;21.10;99.90;;;;;;5093239;28;19911;-61
2021/08/14 02:20:52;;;;;;;;;;;21.00;99.90;;;;;;5093199;28;19904;-61
2021/08/14 02:23:18;;;;;;;;;;;21.00;99.90;;;;;;5093432;28;20061;-61
2021/08/14 02:25:43;;;;;;;;;;;21.00;99.90;;;;;;5093176;28;19915;-61
2021/08/14 02:28:09;;;;;;;;;;;21.00;99.90;;;;;;5093515;28;19908;-61
2021/08/14 02:30:34;;;;;;;;;;;21.00;99.90;;;;;;5093699;28;19994;-61
2021/08/14 02:33:00;;;;;;;;;;;20.90;99.90;;;;;;5093233;28;19919;-61
2021/08/14 02:35:25;;;;;;;;;;;20.90;99.90;;;;;;5091801;28;19904;-59
2021/08/14 02:37:51;;;;;;;;;;;20.90;99.90;;;;;;5093213;28;19920;-60
2021/08/14 02:40:16;;;;;;;;;;;20.90;99.90;;;;;;5093252;28;19904;-60
2021/08/14 02:42:42;;;;;;;;;;;20.80;99.90;;;;;;5093140;28;20426;-61
2021/08/14 02:45:09;;;;;;;;;;;20.80;99.90;;;;;;5093188;28;19927;-61
2021/08/14 02:47:35;;;;;;;;;;;20.80;99.90;;;;;;5093321;28;19915;-61
2021/08/14 02:50:00;;;;;;;;;;;20.80;99.90;;;;;;5093100;28;19904;-61
2021/08/14 02:52:26;;;;;;;;;;;20.80;99.90;;;;;;5091827;28;20007;-62
2021/08/14 02:54:51;;;;;;;;;;;20.70;99.90;;;;;;5093213;28;19908;-61
2021/08/14 02:57:17;;;;;;;;;;;20.70;99.90;;;;;;5093279;28;20344;-62
2021/08/14 02:59:42;;;;;;;;;;;20.70;99.90;;;;;;5092967;28;19916;-59
2021/08/14 03:02:07;;;;;;;;;;;20.70;99.90;;;;;;5093014;28;20268;-62
2021/08/14 03:04:33;;;;;;;;;;;20.70;99.90;;;;;;5092943;28;19953;-62
2021/08/14 03:06:58;;;;;;;;;;;20.60;99.90;;;;;;5092712;28;20002;-60
2021/08/14 03:09:24;;;;;;;;;;;20.60;99.90;;;;;;5093019;28;19904;-61
2021/08/14 03:11:50;;;;;;;;;;;20.60;99.90;;;;;;5093813;28;19904;-61
2021/08/14 03:14:15;;;;;;;;;;;20.60;99.90;;;;;;5096394;28;19908;-61
2021/08/14 03:16:40;;;;;;;;;;;20.50;99.90;;;;;;5096324;28;19904;-61
2021/08/14 03:19:06;;;;;;;;;;;20.50;99.90;;;;;;5096359;28;19966;-59
2021/08/14 03:21:31;;;;;;;;;;;20.50;99.90;;;;;;5096340;28;19958;-60
2021/08/14 03:23:57;;;;;;;;;;;20.50;99.90;;;;;;5096339;28;19904;-61
2021/08/14 03:26:23;;;;;;;;;;;20.50;99.90;;;;;;5095046;28;19904;-61
2021/08/14 03:28:48;;;;;;;;;;;20.50;99.90;;;;;;5096125;28;19907;-60
2021/08/14 03:31:14;;;;;;;;;;;20.40;99.90;;;;;;5096194;28;20387;-61
2021/08/14 03:33:39;;;;;;;;;;;20.40;99.90;;;;;;5096233;28;19915;-61
2021/08/14 03:36:05;;;;;;;;;;;20.40;99.90;;;;;;5096043;28;20352;-61
2021/08/14 03:38:31;;;;;;;;;;;20.40;99.90;;;;;;5095931;28;19911;-61
2021/08/14 03:40:56;;;;;;;;;;;20.40;99.90;;;;;;5095994;28;19914;-61
2021/08/14 03:43:22;;;;;;;;;;;20.40;99.90;;;;;;5095820;28;19904;-61
2021/08/14 03:45:47;;;;;;;;;;;20.30;99.90;;;;;;5095986;28;19940;-61
2021/08/14 03:48:13;;;;;;;;;;;20.30;99.90;;;;;;5095830;28;20402;-61
2021/08/14 03:50:39;;;;;;;;;;;20.30;99.90;;;;;;5095583;28;19986;-61
2021/08/14 03:53:04;;;;;;;;;;;20.30;99.90;;;;;;5094111;28;20353;-61
2021/08/14 03:55:30;;;;;;;;;;;20.30;99.90;;;;;;5095646;28;19911;-62
2021/08/14 03:57:55;;;;;;;;;;;20.20;99.90;;;;;;5094167;28;19911;-61
2021/08/14 04:00:21;;;;;;;;;;;20.20;99.90;;;;;;5095588;28;20359;-60
2021/08/14 04:02:46;;;;;;;;;;;20.20;99.90;;;;;;5095656;28;19911;-61
2021/08/14 04:05:12;;;;;;;;;;;20.20;99.90;;;;;;5094165;28;19904;-61
2021/08/14 04:07:37;;;;;;;;;;;20.20;99.90;;;;;;5095060;28;19911;-61
2021/08/14 04:10:03;;;;;;;;;;;20.20;99.90;;;;;;5095487;28;19904;-61
2021/08/14 04:12:28;;;;;;;;;;;20.20;99.90;;;;;;5095398;28;19908;-61
2021/08/14 04:14:54;;;;;;;;;;;20.20;99.90;;;;;;5095080;28;19907;-61
2021/08/14 04:17:19;;;;;;;;;;;20.20;99.90;;;;;;5095164;28;19969;-61
2021/08/14 04:19:45;;;;;;;;;;;20.20;99.90;;;;;;5095181;28;20414;-61
2021/08/14 04:22:10;;;;;;;;;;;20.20;99.90;;;;;;5095124;28;19934;-61
2021/08/14 04:24:36;;;;;;;;;;;20.10;99.90;;;;;;5094774;28;20327;-61
2021/08/14 04:27:02;;;;;;;;;;;20.10;99.90;;;;;;5095410;28;20349;-62
2021/08/14 04:29:28;;;;;;;;;;;20.10;99.90;;;;;;5095023;28;19957;-61
2021/08/14 04:31:54;;;;;;;;;;;20.00;99.90;;;;;;5095122;28;19904;-61
2021/08/14 04:34:19;;;;;;;;;;;20.00;99.90;;;;;;5095034;28;19947;-63
2021/08/14 04:36:45;;;;;;;;;;;20.00;99.90;;;;;;5093471;28;19907;-62
2021/08/14 04:39:10;;;;;;;;;;;20.00;99.90;;;;;;5097921;28;19904;-63
2021/08/14 04:41:36;;;;;;;;;;;20.00;99.90;;;;;;5096113;28;19903;-61
2021/08/14 04:44:01;;;;;;;;;;;20.00;99.90;;;;;;5093391;28;20018;-61
2021/08/14 04:46:27;;;;;;;;;;;20.00;99.90;;;;;;5094840;28;20278;-62
2021/08/14 04:48:52;;;;;;;;;;;20.00;99.90;;;;;;5095146;28;19911;-62
2021/08/14 04:51:18;;;;;;;;;;;20.00;99.90;;;;;;5094931;28;19919;-61
2021/08/14 04:53:43;;;;;;;;;;;20.00;99.90;;;;;;5094534;28;20421;-62
2021/08/14 04:56:09;;;;;;;;;;;20.00;99.90;;;;;;5094566;28;19911;-62
2021/08/14 04:58:34;;;;;;;;;;;20.00;99.90;;;;;;5094666;28;19911;-62
2021/08/14 05:01:00;;;;;;;;;;;20.00;99.90;;;;;;5094443;28;19949;-62
2021/08/14 05:03:25;;;;;;;;;;;20.00;99.90;;;;;;5094202;28;19952;-62
2021/08/14 05:05:51;;;;;;;;;;;20.00;99.90;;;;;;5094269;28;19904;-62
2021/08/14 05:08:17;;;;;;;;;;;20.10;99.90;;;;;;5094359;28;19904;-62
2021/08/14 05:10:42;;;;;;;;;;;20.10;99.90;;;;;;5094240;28;19904;-62
2021/08/14 05:13:08;;;;;;;;;;;20.10;99.90;;;;;;5094005;28;19998;-63
2021/08/14 05:15:33;;;;;;;;;;;20.10;99.90;;;;;;5094032;28;19908;-62
2021/08/14 05:17:59;;;;;;;;;;;20.10;99.90;;;;;;5094547;28;20428;-62
2021/08/14 05:20:24;;;;;;;;;;;20.10;99.90;;;;;;5094052;28;19911;-61
2021/08/14 05:22:50;;;;;;;;;;;20.20;99.90;;;;;;5093889;28;19983;-62
2021/08/14 05:25:15;;;;;;;;;;;20.20;99.90;;;;;;5093840;28;19904;-61
2021/08/14 05:27:41;;;;;;;;;;;20.20;99.90;;;;;;5093953;28;20317;-61
2021/08/14 05:30:06;;;;;;;;;;;20.20;99.90;;;;;;5093749;28;20276;-61
2021/08/14 05:32:32;;;;;;;;;;;20.20;99.90;;;;;;5093945;28;19910;-61
2021/08/14 05:34:57;;;;;;;;;;;20.20;99.90;;;;;;5093272;28;19958;-62
2021/08/14 05:37:23;;;;;;;;;;;20.20;99.90;;;;;;5093906;28;19904;-62
2021/08/14 05:39:49;;;;;;;;;;;20.20;99.90;;;;;;5094114;28;19908;-62
2021/08/14 05:42:14;;;;;;;;;;;20.30;99.90;;;;;;5093686;28;19999;-61
2021/08/14 05:44:40;;;;;;;;;;;20.30;99.90;;;;;;5093747;28;20001;-62
2021/08/14 05:47:05;;;;;;;;;;;20.30;99.90;;;;;;5093500;28;19949;-62
2021/08/14 05:49:31;;;;;;;;;;;20.30;99.90;;;;;;5093674;28;20328;-62
2021/08/14 05:51:58;;;;;;;;;;;20.40;99.90;;;;;;5093414;28;19994;-60
2021/08/14 05:54:25;;;;;;;;;;;20.40;99.90;;;;;;5093190;28;20434;-60
2021/08/14 05:56:50;;;;;;;;;;;20.40;99.90;;;;;;5093456;28;19904;-59
2021/08/14 05:59:16;;;;;;;;;;;20.40;99.90;;;;;;5093341;28;19911;-60
2021/08/14 06:01:41;;;;;;;;;;;20.50;99.90;;;;;;5093517;28;19961;-61
2021/08/14 06:04:07;;;;;;;;;;;20.60;99.90;;;;;;5093198;28;19904;-62
2021/08/14 06:06:33;;;;;;;;;;;20.60;99.90;;;;;;5093240;28;19938;-61
2021/08/14 06:08:58;;;;;;;;;;;20.60;99.90;;;;;;5093233;28;19908;-61
2021/08/14 06:11:24;;;;;;;;;;;20.70;99.90;;;;;;5093187;28;19943;-61
2021/08/14 06:13:49;;;;;;;;;;;20.70;99.90;;;;;;5091738;28;19961;-61
2021/08/14 06:16:15;;;;;;;;;;;20.70;99.90;;;;;;5093444;28;19930;-62
2021/08/14 06:18:41;;;;;;;;;;;20.80;99.90;;;;;;5093294;28;19908;-61
2021/08/14 06:21:08;;;;;;;;;;;20.90;99.90;;;;;;5093245;28;19939;-62
2021/08/14 06:23:33;;;;;;;;;;;20.90;99.90;;;;;;5093310;28;19904;-62
2021/08/14 06:25:59;;;;;;;;;;;21.00;99.90;;;;;;5093200;28;19918;-62
2021/08/14 06:28:24;;;;;;;;;;;21.00;99.90;;;;;;5093082;28;19904;-62
2021/08/14 06:30:50;;;;;;;;;;;21.10;99.90;;;;;;5093404;28;20363;-62
2021/08/14 06:33:15;;;;;;;;;;;21.10;99.90;;;;;;5093241;28;19908;-62
2021/08/14 06:35:41;;;;;;;;;;;21.20;99.90;;;;;;5093479;28;20328;-62
2021/08/14 06:38:06;;;;;;;;;;;21.30;99.90;;;;;;5093064;28;19958;-62
2021/08/14 06:40:32;;;;;;;;;;;21.30;99.90;;;;;;5093107;28;20002;-62
2021/08/14 06:42:57;;;;;;;;;;;21.40;99.90;;;;;;5093483;28;19904;-61
2021/08/14 06:45:23;;;;;;;;;;;21.40;99.90;;;;;;5092980;28;19991;-61
2021/08/14 06:47:48;;;;;;;;;;;21.50;99.90;;;;;;5097013;28;19907;-62
2021/08/14 06:50:14;;;;;;;;;;;21.60;99.90;;;;;;5096957;28;19904;-62
2021/08/14 06:52:39;;;;;;;;;;;21.70;99.90;;;;;;5096754;28;20245;-62
2021/08/14 06:55:05;;;;;;;;;;;21.70;99.90;;;;;;5096882;28;19904;-61
2021/08/14 06:57:31;;;;;;;;;;;21.80;99.90;;;;;;5096697;28;19904;-61
2021/08/14 06:59:57;;;;;;;;;;;21.80;99.90;;;;;;5096805;28;20220;-62
2021/08/14 07:02:23;;;;;;;;;;;21.90;99.90;;;;;;5096943;28;19904;-62
2021/08/14 07:04:48;;;;;;;;;;;22.00;99.90;;;;;;5096511;28;19914;-63
2021/08/14 07:07:17;;;;;;;;;;;22.00;99.90;;;;;;5096529;28;19911;-62
2021/08/14 07:09:43;;;;;;;;;;;22.10;99.90;;;;;;5096471;28;19940;-62
2021/08/14 07:12:08;;;;;;;;;;;22.20;99.90;;;;;;5096367;28;19951;-62
2021/08/14 07:14:34;;;;;;;;;;;22.20;99.90;;;;;;5096239;28;19964;-61
2021/08/14 07:16:59;;;;;;;;;;;22.30;99.90;;;;;;5096731;28;19910;-62
2021/08/14 07:19:25;;;;;;;;;;;22.40;99.90;;;;;;5095848;28;19957;-62
2021/08/14 07:21:51;;;;;;;;;;;22.40;99.90;;;;;;5096184;28;19904;-62
2021/08/14 07:24:17;;;;;;;;;;;22.50;99.90;;;;;;5096420;28;20309;-62
2021/08/14 07:26:43;;;;;;;;;;;22.60;99.90;;;;;;5096233;28;19957;-62
2021/08/14 07:29:08;;;;;;;;;;;22.80;99.90;;;;;;5096135;28;19908;-62
2021/08/14 07:31:34;;;;;;;;;;;22.80;99.90;;;;;;5095976;28;19926;-62
2021/08/14 07:33:59;;;;;;;;;;;22.90;99.90;;;;;;5095885;28;19987;-62
2021/08/14 07:36:25;;;;;;;;;;;23.00;99.90;;;;;;5096460;28;19904;-62
2021/08/14 07:38:50;;;;;;;;;;;23.10;99.90;;;;;;5095895;28;20004;-61
2021/08/14 07:41:16;;;;;;;;;;;23.20;99.90;;;;;;5095933;28;20329;-62
2021/08/14 07:43:41;;;;;;;;;;;23.30;99.90;;;;;;5095847;28;19904;-62
2021/08/14 07:46:08;;;;;;;;;;;23.30;99.90;;;;;;5095884;28;19904;-62
2021/08/14 07:48:34;;;;;;;;;;;23.30;99.90;;;;;;5095793;28;19965;-62
2021/08/14 07:51:01;;;;;;;;;;;23.40;99.90;;;;;;5095587;28;20265;-62
2021/08/14 07:53:27;;;;;;;;;;;23.50;99.90;;;;;;5095538;28;19969;-61
2021/08/14 07:55:52;;;;;;;;;;;23.60;99.90;;;;;;5095566;28;19904;-61
2021/08/14 07:58:18;;;;;;;;;;;23.70;99.90;;;;;;5094868;28;19904;-61
2021/08/14 08:00:43;;;;;;;;;;;23.80;99.90;;;;;;5095648;28;19908;-61
2021/08/14 08:03:09;;;;;;;;;;;23.90;99.90;;;;;;5095480;28;19915;-62
2021/08/14 08:05:35;;;;;;;;;;;24.00;99.90;;;;;;5095496;28;19911;-62
2021/08/14 08:08:01;;;;;;;;;;;24.10;99.90;;;;;;5095400;28;19904;-61
2021/08/14 08:10:27;;;;;;;;;;;24.20;99.90;;;;;;5095142;28;19904;-62
2021/08/14 08:12:52;;;;;;;;;;;24.30;99.90;;;;;;5095040;28;20266;-61
2021/08/14 08:15:18;;;;;;;;;;;24.30;99.90;;;;;;5095790;28;19908;-64
2021/08/14 08:17:43;;;;;;;;;;;24.40;99.90;;;;;;5095145;28;20289;-64
2021/08/14 08:20:10;;;;;;;;;;;24.70;99.90;;;;;;5095384;28;19939;-64
2021/08/14 08:22:36;;;;;;;;;;;25.00;99.90;;;;;;5095161;28;20355;-65
2021/08/14 08:25:02;;;;;;;;;;;26.40;99.90;;;;;;5095368;28;19943;-66
2021/08/14 08:27:27;;;;;;;;;;;28.60;99.20;;;;;;5095680;28;19994;-66
2021/08/14 08:29:53;;;;;;;;;;;31.00;95.30;;;;;;5096314;28;19976;-64
2021/08/14 08:32:18;;;;;;;;;;;33.00;91.40;;;;;;5095358;28;19908;-64
2021/08/14 08:34:44;;;;;;;;;;;34.50;87.20;;;;;;5094789;28;19919;-65
2021/08/14 08:37:10;;;;;;;;;;;36.10;81.60;;;;;;5094916;28;19904;-65
2021/08/14 08:39:37;;;;;;;;;;;37.50;76.00;;;;;;5095009;28;19904;-65
2021/08/14 08:42:02;;;;;;;;;;;38.50;71.70;;;;;;5094838;28;20321;-65
2021/08/14 08:44:28;;;;;;;;;;;39.00;67.90;;;;;;5094594;28;19911;-65
2021/08/14 08:46:54;;;;;;;;;;;38.20;66.90;;;;;;5094655;28;19904;-65
2021/08/14 08:49:20;;;;;;;;;;;38.80;65.80;;;;;;5094704;28;19949;-65
2021/08/14 08:51:46;;;;;;;;;;;39.70;63.90;;;;;;5094416;28;20460;-65
2021/08/14 08:54:13;;;;;;;;;;;40.20;61.20;;;;;;5094585;28;19919;-64
2021/08/14 08:56:38;;;;;;;;;;;40.80;60.30;;;;;;5095285;28;19904;-64
2021/08/14 08:59:04;;;;;;;;;;;41.50;58.60;;;;;;5094599;28;19911;-65
2021/08/14 09:01:29;;;;;;;;;;;41.70;57.80;;;;;;5094604;28;19935;-66
2021/08/14 09:04:15;;;;;;;;;;;42.10;57.00;;;;;;5094328;28;19903;-64
2021/08/14 09:06:41;;;;;;;;;;;42.30;56.30;;;;;;5094281;28;19904;-66
2021/08/14 09:09:11;;;;;;;;;;;42.80;55.00;;;;;;5093980;28;20280;-66
2021/08/14 09:11:46;;;;;;;;;;;43.00;54.80;;;;;;5094052;28;19939;-64
2021/08/14 09:14:11;;;;;;;;;;;43.60;53.70;;;;;;5094096;28;20380;-64
2021/08/14 09:16:37;;;;;;;;;;;43.50;53.10;;;;;;5094334;28;19989;-64
2021/08/14 09:19:02;;;;;;;;;;;43.90;51.70;;;;;;5093991;28;19998;-64
2021/08/14 09:21:35;;;;;;;;;;;43.00;51.70;;;;;;5094093;28;19926;-64
2021/08/14 09:24:04;;;;;;;;;;;43.30;52.60;;;;;;5093780;28;19999;-65
2021/08/14 09:26:56;;;;;;;;;;;42.50;51.60;;;;;;5093773;28;19904;-64
2021/08/14 09:29:28;;;;;;;;;;;42.30;52.80;;;;;;5093586;28;19904;-64
2021/08/14 09:31:55;;;;;;;;;;;43.00;52.00;;;;;;5093694;28;19904;-65
2021/08/14 09:34:24;;;;;;;;;;;44.10;51.00;;;;;;5093673;28;19951;-64
2021/08/14 09:36:59;;;;;;;;;;;45.20;49.60;;;;;;5093831;28;20332;-65
2021/08/14 09:39:24;;;;;;;;;;;45.80;48.60;;;;;;5093500;28;19911;-65
2021/08/14 09:41:59;;;;;;;;;;;45.60;48.40;;;;;;5093464;28;19969;-65
2021/08/14 09:44:24;;;;;;;;;;;45.30;47.80;;;;;;5093440;28;20326;-65
2021/08/14 09:46:50;;;;;;;;;;;45.30;47.10;;;;;;5093646;28;20010;-65
2021/08/14 09:49:15;;;;;;;;;;;45.50;47.20;;;;;;5093646;28;19904;-65
2021/08/14 09:51:41;;;;;;;;;;;45.90;46.40;;;;;;5093399;28;19969;-64
2021/08/14 09:54:06;;;;;;;;;;;45.90;47.10;;;;;;5093321;28;19908;-65
2021/08/14 09:56:35;;;;;;;;;;;45.50;46.80;;;;;;5093358;28;19999;-64
2021/08/14 09:59:01;;;;;;;;;;;44.40;46.70;;;;;;5093178;28;19904;-64
2021/08/14 10:01:27;;;;;;;;;;;43.40;47.40;;;;;;5093877;28;19911;-65
2021/08/14 10:03:53;;;;;;;;;;;42.60;48.60;;;;;;5093075;28;19904;-65
2021/08/14 10:06:19;;;;;;;;;;;43.00;48.70;;;;;;5093341;28;19904;-65
2021/08/14 10:08:45;;;;;;;;;;;43.70;47.60;;;;;;5093786;28;19943;-66
2021/08/14 10:11:12;;;;;;;;;;;43.70;47.20;;;;;;5093607;28;20327;-65
2021/08/14 10:13:41;;;;;;;;;;;43.80;47.40;;;;;;5093480;28;19982;-66
2021/08/14 10:16:09;;;;;;;;;;;44.00;47.40;;;;;;5093488;28;19950;-66
2021/08/14 10:18:35;;;;;;;;;;;44.70;47.00;;;;;;5093874;28;19947;-65
2021/08/14 10:21:00;;;;;;;;;;;45.10;46.20;;;;;;5094794;28;19939;-65
2021/08/14 10:23:28;;;;;;;;;;;44.30;46.40;;;;;;5097567;28;19936;-65
2021/08/14 10:26:05;;;;;;;;;;;43.60;47.50;;;;;;5097553;28;20344;-65
2021/08/14 10:28:45;;;;;;;;;;;44.20;47.30;;;;;;5097943;28;19904;-65
2021/08/14 10:31:43;;;;;;;;;;;44.20;46.60;;;;;;5098255;28;19904;-65
2021/08/14 10:34:11;;;;;;;;;;;42.70;47.80;;;;;;5085775;28;19912;-65
2021/08/14 10:36:40;;;;;;;;;;;42.90;48.20;;;;;;5097930;28;20276;-64
2021/08/14 10:39:19;;;;;;;;;;;43.10;47.60;;;;;;5097243;28;19988;-64
2021/08/14 10:41:47;;;;;;;;;;;43.60;47.70;;;;;;5097275;28;19911;-63
2021/08/14 10:44:13;;;;;;;;;;;43.70;47.20;;;;;;5097589;28;19999;-63
2021/08/14 10:46:41;;;;;;;;;;;42.90;48.00;;;;;;5098260;28;19939;-63
2021/08/14 10:49:08;;;;;;;;;;;42.70;47.80;;;;;;5098321;28;20256;-63
2021/08/14 10:51:46;;;;;;;;;;;41.90;48.20;;;;;;5097237;28;19912;-64
2021/08/14 10:54:12;;;;;;;;;;;42.10;48.50;;;;;;5097411;28;19908;-64
2021/08/14 10:56:51;;;;;;;;;;;42.90;48.30;;;;;;5097669;28;20470;-64
2021/08/14 10:59:43;;;;;;;;;;;44.00;47.40;;;;;;5097831;28;20360;-64
2021/08/14 11:02:11;;;;;;;;;;;44.10;47.20;;;;;;5088703;28;20280;-64
2021/08/14 11:04:42;;;;;;;;;;;45.10;46.50;;;;;;5095449;28;19911;-64
2021/08/14 11:07:17;;;;;;;;;;;45.00;46.00;;;;;;5096815;28;19904;-65
2021/08/14 11:09:43;;;;;;;;;;;44.30;46.50;;;;;;5096756;28;19904;-65
2021/08/14 11:12:08;;;;;;;;;;;43.30;46.90;;;;;;5096809;28;19953;-64
2021/08/14 11:14:37;;;;;;;;;;;42.20;47.60;;;;;;5096630;28;19908;-64
2021/08/14 11:17:03;;;;;;;;;;;40.90;49.00;;;;;;5096764;28;19910;-64
2021/08/14 11:19:40;;;;;;;;;;;39.30;50.50;;;;;;5096616;28;19995;-63
2021/08/14 11:22:21;;;;;;;;;;;37.60;52.40;;;;;;5096883;28;19904;-65
2021/08/14 11:24:47;;;;;;;;;;;36.50;53.90;;;;;;5096541;28;19995;-65
2021/08/14 11:27:22;;;;;;;;;;;35.80;54.90;;;;;;5096402;28;19988;-63
2021/08/14 11:29:52;;;;;;;;;;;35.00;56.30;;;;;;5096309;28;19904;-64
2021/08/14 11:32:18;;;;;;;;;;;34.50;56.60;;;;;;5094242;28;20307;-64
2021/08/14 11:34:44;;;;;;;;;;;33.70;57.50;;;;;;5095906;28;19915;-64
2021/08/14 11:37:10;;;;;;;;;;;33.10;58.90;;;;;;5096036;28;20288;-64
2021/08/14 11:39:36;;;;;;;;;;;32.80;59.10;;;;;;5096656;28;19904;-64
2021/08/14 11:42:02;;;;;;;;;;;32.50;60.10;;;;;;5096181;28;19923;-64
2021/08/14 11:44:29;;;;;;;;;;;32.20;60.00;;;;;;5096355;28;19911;-64
2021/08/14 11:47:01;;;;;;;;;;;31.90;60.00;;;;;;5096277;28;19910;-64
2021/08/14 11:49:27;;;;;;;;;;;31.70;60.60;;;;;;5096178;28;19911;-65
2021/08/14 11:52:05;;;;;;;;;;;31.70;61.60;;;;;;5095801;28;19956;-64
2021/08/14 11:54:31;;;;;;;;;;;31.70;61.40;;;;;;5096002;28;20437;-64
2021/08/14 11:57:10;;;;;;;;;;;31.80;60.40;;;;;;5096280;28;20002;-64
2021/08/14 11:59:35;;;;;;;;;;;31.90;60.70;;;;;;5096348;28;19910;-64
2021/08/14 12:02:01;;;;;;;;;;;31.80;60.80;;;;;;5096264;28;20002;-64
2021/08/14 12:04:26;;;;;;;;;;;31.80;60.60;;;;;;5095903;28;19960;-66
2021/08/14 12:06:56;;;;;;;;;;;31.70;60.20;;;;;;5095995;28;19999;-65
2021/08/14 12:09:21;;;;;;;;;;;31.40;61.50;;;;;;5095816;28;19926;-66
2021/08/14 12:11:51;;;;;;;;;;;31.40;62.00;;;;;;5095684;28;20345;-65
2021/08/14 12:14:20;;;;;;;;;;;31.50;62.10;;;;;;5095471;28;19908;-64
2021/08/14 12:16:49;;;;;;;;;;;31.50;62.90;;;;;;5095329;28;19936;-63
2021/08/14 12:19:16;;;;;;;;;;;31.50;63.00;;;;;;5095539;28;19914;-63
2021/08/14 12:21:43;;;;;;;;;;;31.40;63.50;;;;;;5095622;28;19904;-64
2021/08/14 12:24:08;;;;;;;;;;;31.30;63.90;;;;;;5093919;28;19911;-64
2021/08/14 12:26:34;;;;;;;;;;;31.10;64.10;;;;;;5095354;28;19990;-64
2021/08/14 12:29:01;;;;;;;;;;;30.90;64.60;;;;;;5093907;28;19904;-64
2021/08/14 12:31:27;;;;;;;;;;;30.90;65.70;;;;;;5095292;28;19904;-64
2021/08/14 12:33:53;;;;;;;;;;;30.90;65.90;;;;;;5094831;28;19908;-64
2021/08/14 12:36:31;;;;;;;;;;;30.90;66.30;;;;;;5094936;28;19927;-64
2021/08/14 12:38:56;;;;;;;;;;;31.00;66.70;;;;;;5094872;28;19904;-64
2021/08/14 12:41:22;;;;;;;;;;;31.10;67.10;;;;;;5095183;28;19952;-64
2021/08/14 12:43:49;;;;;;;;;;;31.10;66.40;;;;;;5094629;28;19983;-64
2021/08/14 12:46:18;;;;;;;;;;;31.20;66.40;;;;;;5094760;28;19904;-64
2021/08/14 12:49:02;;;;;;;;;;;31.20;66.80;;;;;;5094876;28;19904;-64
2021/08/14 12:51:27;;;;;;;;;;;31.30;66.70;;;;;;5094427;28;20021;-64
2021/08/14 12:53:53;;;;;;;;;;;31.30;67.00;;;;;;5094473;28;19951;-64
2021/08/14 12:56:18;;;;;;;;;;;31.40;66.60;;;;;;5094526;28;19911;-64
2021/08/14 12:58:44;;;;;;;;;;;31.20;66.80;;;;;;5096014;28;19912;-64
2021/08/14 13:01:19;;;;;;;;;;;31.00;67.30;;;;;;5096255;28;20431;-64
2021/08/14 13:03:44;;;;;;;;;;;31.10;68.00;;;;;;5095044;28;19930;-64
2021/08/14 13:06:10;;;;;;;;;;;31.20;68.00;;;;;;5093861;28;20351;-65
2021/08/14 13:08:35;;;;;;;;;;;31.20;67.70;;;;;;5094575;28;20341;-65
2021/08/14 13:11:01;;;;;;;;;;;31.20;68.00;;;;;;5094240;28;19958;-64
2021/08/14 13:13:26;;;;;;;;;;;31.20;67.80;;;;;;5092745;28;19908;-65
2021/08/14 13:15:52;;;;;;;;;;;31.00;68.20;;;;;;5094155;28;19908;-65
2021/08/14 13:18:17;;;;;;;;;;;31.10;68.50;;;;;;5094062;28;19910;-65
2021/08/14 13:20:43;;;;;;;;;;;31.10;68.70;;;;;;5092680;28;19908;-65
2021/08/14 13:23:08;;;;;;;;;;;31.20;68.80;;;;;;5094002;28;19911;-65
2021/08/14 13:25:34;;;;;;;;;;;31.20;68.10;;;;;;5093970;28;20269;-65
2021/08/14 13:28:00;;;;;;;;;;;31.20;68.70;;;;;;5093980;28;19952;-64
2021/08/14 13:30:25;;;;;;;;;;;31.20;68.20;;;;;;5094337;28;20285;-65
2021/08/14 13:32:51;;;;;;;;;;;31.20;68.20;;;;;;5094964;28;20281;-65
2021/08/14 13:35:17;;;;;;;;;;;31.30;68.20;;;;;;5093866;28;19911;-65
2021/08/14 13:37:43;;;;;;;;;;;31.30;68.30;;;;;;5094522;28;19904;-63
2021/08/14 13:40:10;;;;;;;;;;;31.40;67.80;;;;;;5094136;28;19927;-64
2021/08/14 13:42:36;;;;;;;;;;;31.50;67.30;;;;;;5094897;28;19904;-64
2021/08/14 13:45:02;;;;;;;;;;;31.50;67.60;;;;;;5094289;28;20330;-65
2021/08/14 13:47:27;;;;;;;;;;;31.60;67.80;;;;;;5095039;28;20376;-64
2021/08/14 13:49:53;;;;;;;;;;;31.60;67.20;;;;;;5095107;28;19957;-64
2021/08/14 13:52:19;;;;;;;;;;;31.60;67.20;;;;;;5094400;28;20165;-64
2021/08/14 13:54:44;;;;;;;;;;;31.60;67.60;;;;;;5094288;28;20056;-64
2021/08/14 13:57:10;;;;;;;;;;;31.60;67.90;;;;;;5094194;28;19904;-64
2021/08/14 13:59:35;;;;;;;;;;;31.60;67.70;;;;;;5094618;28;19912;-64
2021/08/14 14:02:01;;;;;;;;;;;31.70;67.70;;;;;;5095246;28;19904;-64
2021/08/14 14:04:26;;;;;;;;;;;31.80;67.90;;;;;;5095463;28;20357;-64
2021/08/14 14:06:52;;;;;;;;;;;31.80;68.10;;;;;;5096232;28;19904;-64
2021/08/14 14:09:17;;;;;;;;;;;31.80;68.30;;;;;;5098590;28;19911;-64
2021/08/14 14:11:43;;;;;;;;;;;31.80;68.00;;;;;;5098231;28;19904;-64
2021/08/14 14:14:08;;;;;;;;;;;31.80;67.90;;;;;;5097152;28;19908;-63